sensor_id;sensor_type;location;lat;lon;timestamp;pressure;altitude;pressure_sealevel;temperature;humidity
29467;BME280;60968;37.490;-122.288;2023-02-20T00:01:45;98924.72;;;17.08;30.51
29467;BME280;60968;37.490;-122.288;2023-02-20T00:04:46;98916.88;;;16.84;29.72
29467;BME280;60968;37.490;-122.288;2023-02-20T00:07:48;98909.38;;;16.75;32.09
29467;BME280;60968;37.490;-122.288;2023-02-20T00:10:49;98911.72;;;16.60;33.42
29467;BME280;60968;37.490;-122.288;2023-02-20T00:13:52;98913.78;;;16.52;32.40
29467;BME280;60968;37.490;-122.288;2023-02-20T00:16:53;98915.69;;;16.49;31.90
29467;BME280;60968;37.490;-122.288;2023-02-20T00:19:54;98914.88;;;16.46;31.01
29467;BME280;60968;37.490;-122.288;2023-02-20T00:22:56;98924.31;;;16.30;32.93
29467;BME280;60968;37.490;-122.288;2023-02-20T00:25:57;98926.09;;;16.06;33.09
29467;BME280;60968;37.490;-122.288;2023-02-20T00:28:58;98921.66;;;15.84;32.74
29467;BME280;60968;37.490;-122.288;2023-02-20T00:32:01;98918.59;;;15.71;32.78
29467;BME280;60968;37.490;-122.288;2023-02-20T00:35:03;98920.91;;;15.55;34.58
29467;BME280;60968;37.490;-122.288;2023-02-20T00:38:04;98920.44;;;15.44;35.03
29467;BME280;60968;37.490;-122.288;2023-02-20T00:41:04;98924.00;;;15.43;33.09
29467;BME280;60968;37.490;-122.288;2023-02-20T00:44:06;98916.19;;;15.40;33.60
29467;BME280;60968;37.490;-122.288;2023-02-20T00:47:07;98914.81;;;15.30;33.71
29467;BME280;60968;37.490;-122.288;2023-02-20T00:50:09;98917.13;;;15.14;35.48
29467;BME280;60968;37.490;-122.288;2023-02-20T00:53:14;98914.97;;;15.00;34.83
29467;BME280;60968;37.490;-122.288;2023-02-20T00:56:15;98919.66;;;14.90;35.81
29467;BME280;60968;37.490;-122.288;2023-02-20T00:59:15;98921.63;;;14.83;35.22
29467;BME280;60968;37.490;-122.288;2023-02-20T01:02:22;98919.34;;;14.72;34.99
29467;BME280;60968;37.490;-122.288;2023-02-20T01:05:23;98920.47;;;14.65;34.94
29467;BME280;60968;37.490;-122.288;2023-02-20T01:08:24;98931.28;;;14.54;35.72
29467;BME280;60968;37.490;-122.288;2023-02-20T01:11:27;98928.19;;;14.41;36.93
29467;BME280;60968;37.490;-122.288;2023-02-20T01:14:28;98922.53;;;14.26;36.56
29467;BME280;60968;37.490;-122.288;2023-02-20T01:17:30;98923.50;;;14.23;34.67
29467;BME280;60968;37.490;-122.288;2023-02-20T01:20:31;98926.25;;;14.18;35.42
29467;BME280;60968;37.490;-122.288;2023-02-20T01:23:32;98933.38;;;14.13;34.67
29467;BME280;60968;37.490;-122.288;2023-02-20T01:26:33;98920.34;;;14.12;34.45
29467;BME280;60968;37.490;-122.288;2023-02-20T01:29:34;98917.03;;;14.06;34.49
29467;BME280;60968;37.490;-122.288;2023-02-20T01:32:36;98920.78;;;13.96;34.61
29467;BME280;60968;37.490;-122.288;2023-02-20T01:35:37;98916.59;;;13.90;35.53
29467;BME280;60968;37.490;-122.288;2023-02-20T01:38:42;98925.63;;;13.80;35.57
29467;BME280;60968;37.490;-122.288;2023-02-20T01:41:46;98927.59;;;13.72;35.47
29467;BME280;60968;37.490;-122.288;2023-02-20T01:44:48;98924.34;;;13.64;35.66
29467;BME280;60968;37.490;-122.288;2023-02-20T01:48:03;98930.66;;;13.57;35.90
29467;BME280;60968;37.490;-122.288;2023-02-20T01:51:04;98925.59;;;13.50;34.79
29467;BME280;60968;37.490;-122.288;2023-02-20T01:54:08;98929.91;;;13.51;35.03
29467;BME280;60968;37.490;-122.288;2023-02-20T01:57:15;98931.72;;;13.49;34.94
29467;BME280;60968;37.490;-122.288;2023-02-20T02:00:19;98938.78;;;13.47;34.09
29467;BME280;60968;37.490;-122.288;2023-02-20T02:03:24;98937.91;;;13.47;34.54
29467;BME280;60968;37.490;-122.288;2023-02-20T02:06:26;98950.19;;;13.45;34.37
29467;BME280;60968;37.490;-122.288;2023-02-20T02:09:59;98952.72;;;13.48;34.97
29467;BME280;60968;37.490;-122.288;2023-02-20T02:13:02;98967.66;;;13.43;34.71
29467;BME280;60968;37.490;-122.288;2023-02-20T02:22:59;98981.03;;;13.32;35.37
29467;BME280;60968;37.490;-122.288;2023-02-20T02:26:54;98997.94;;;13.17;36.49
29467;BME280;60968;37.490;-122.288;2023-02-20T02:36:50;98989.31;;;12.77;37.77
29467;BME280;60968;37.490;-122.288;2023-02-20T02:43:56;98999.50;;;12.50;40.59
29467;BME280;60968;37.490;-122.288;2023-02-20T02:50:02;99018.97;;;12.35;40.20
29467;BME280;60968;37.490;-122.288;2023-02-20T02:53:07;99019.94;;;12.31;41.11
29467;BME280;60968;37.490;-122.288;2023-02-20T02:56:10;99029.56;;;12.29;40.29
29467;BME280;60968;37.490;-122.288;2023-02-20T02:59:14;99034.84;;;12.28;40.53
29467;BME280;60968;37.490;-122.288;2023-02-20T03:02:18;99028.09;;;12.16;40.69
29467;BME280;60968;37.490;-122.288;2023-02-20T03:05:23;99035.25;;;12.06;41.87
29467;BME280;60968;37.490;-122.288;2023-02-20T03:11:39;99025.97;;;11.90;42.15
29467;BME280;60968;37.490;-122.288;2023-02-20T03:14:41;99014.66;;;11.89;40.10
29467;BME280;60968;37.490;-122.288;2023-02-20T03:21:17;99022.09;;;12.11;39.75
29467;BME280;60968;37.490;-122.288;2023-02-20T03:24:21;99034.16;;;12.16;41.67
29467;BME280;60968;37.490;-122.288;2023-02-20T03:30:55;99041.25;;;12.11;39.79
29467;BME280;60968;37.490;-122.288;2023-02-20T03:34:05;99044.94;;;12.01;39.72
29467;BME280;60968;37.490;-122.288;2023-02-20T03:37:17;99038.91;;;11.97;38.81
29467;BME280;60968;37.490;-122.288;2023-02-20T03:40:20;99040.78;;;11.89;38.70
29467;BME280;60968;37.490;-122.288;2023-02-20T03:43:22;99040.06;;;11.81;38.82
29467;BME280;60968;37.490;-122.288;2023-02-20T03:46:24;99034.19;;;11.68;39.42
29467;BME280;60968;37.490;-122.288;2023-02-20T03:49:32;99037.84;;;11.59;39.45
29467;BME280;60968;37.490;-122.288;2023-02-20T03:52:34;99038.88;;;11.50;38.97
29467;BME280;60968;37.490;-122.288;2023-02-20T03:55:35;99044.78;;;11.60;38.26
29467;BME280;60968;37.490;-122.288;2023-02-20T03:58:41;99035.09;;;12.15;36.53
29467;BME280;60968;37.490;-122.288;2023-02-20T04:01:51;99038.34;;;12.27;35.95
29467;BME280;60968;37.490;-122.288;2023-02-20T04:04:55;99043.25;;;11.98;34.85
29467;BME280;60968;37.490;-122.288;2023-02-20T04:11:30;99043.75;;;11.69;34.98
29467;BME280;60968;37.490;-122.288;2023-02-20T04:14:32;99036.16;;;11.57;35.65
29467;BME280;60968;37.490;-122.288;2023-02-20T04:17:54;99028.47;;;11.47;35.31
29467;BME280;60968;37.490;-122.288;2023-02-20T04:20:59;99026.09;;;11.35;35.33
29467;BME280;60968;37.490;-122.288;2023-02-20T04:24:05;99032.31;;;11.28;34.22
29467;BME280;60968;37.490;-122.288;2023-02-20T04:27:08;99027.91;;;11.30;33.12
29467;BME280;60968;37.490;-122.288;2023-02-20T04:30:10;99026.19;;;11.29;33.63
29467;BME280;60968;37.490;-122.288;2023-02-20T04:33:13;99028.00;;;11.25;33.99
29467;BME280;60968;37.490;-122.288;2023-02-20T04:36:14;99022.84;;;11.21;33.14
29467;BME280;60968;37.490;-122.288;2023-02-20T04:39:15;99025.41;;;11.24;31.88
29467;BME280;60968;37.490;-122.288;2023-02-20T04:42:16;99021.63;;;11.40;30.16
29467;BME280;60968;37.490;-122.288;2023-02-20T04:45:17;99017.88;;;11.57;30.69
29467;BME280;60968;37.490;-122.288;2023-02-20T04:48:18;99026.63;;;11.54;31.08
29467;BME280;60968;37.490;-122.288;2023-02-20T04:51:19;99018.81;;;11.53;31.49
29467;BME280;60968;37.490;-122.288;2023-02-20T04:54:20;99016.25;;;11.51;31.05
29467;BME280;60968;37.490;-122.288;2023-02-20T04:57:21;99019.13;;;11.82;30.50
29467;BME280;60968;37.490;-122.288;2023-02-20T05:00:25;99032.88;;;11.92;30.53
29467;BME280;60968;37.490;-122.288;2023-02-20T05:03:26;99030.66;;;11.72;30.78
29467;BME280;60968;37.490;-122.288;2023-02-20T05:06:27;99026.44;;;11.65;30.47
29467;BME280;60968;37.490;-122.288;2023-02-20T05:09:27;99016.09;;;11.59;30.80
29467;BME280;60968;37.490;-122.288;2023-02-20T05:12:28;99024.94;;;11.50;31.40
29467;BME280;60968;37.490;-122.288;2023-02-20T05:15:30;99022.53;;;11.41;31.05
29467;BME280;60968;37.490;-122.288;2023-02-20T05:18:31;99015.69;;;11.33;31.92
29467;BME280;60968;37.490;-122.288;2023-02-20T05:21:34;99016.66;;;11.26;31.32
29467;BME280;60968;37.490;-122.288;2023-02-20T05:24:35;99015.78;;;11.27;30.41
29467;BME280;60968;37.490;-122.288;2023-02-20T05:27:57;99019.28;;;11.28;30.15
29467;BME280;60968;37.490;-122.288;2023-02-20T05:30:58;99027.78;;;11.39;28.52
29467;BME280;60968;37.490;-122.288;2023-02-20T05:33:58;99036.28;;;11.47;28.94
29467;BME280;60968;37.490;-122.288;2023-02-20T05:36:59;99039.53;;;11.62;27.66
29467;BME280;60968;37.490;-122.288;2023-02-20T05:40:00;99046.31;;;11.72;29.79
29467;BME280;60968;37.490;-122.288;2023-02-20T05:43:02;99053.41;;;11.64;33.28
29467;BME280;60968;37.490;-122.288;2023-02-20T05:46:03;99057.09;;;11.54;37.98
29467;BME280;60968;37.490;-122.288;2023-02-20T05:49:04;99053.97;;;11.31;39.24
29467;BME280;60968;37.490;-122.288;2023-02-20T05:52:06;99070.00;;;11.07;41.95
29467;BME280;60968;37.490;-122.288;2023-02-20T05:55:09;99072.91;;;10.87;41.95
29467;BME280;60968;37.490;-122.288;2023-02-20T05:58:10;99083.50;;;10.74;42.04
29467;BME280;60968;37.490;-122.288;2023-02-20T06:01:22;99100.97;;;10.69;42.24
29467;BME280;60968;37.490;-122.288;2023-02-20T06:04:24;99106.28;;;10.60;42.91
29467;BME280;60968;37.490;-122.288;2023-02-20T06:07:25;99114.22;;;10.51;43.84
29467;BME280;60968;37.490;-122.288;2023-02-20T06:10:26;99127.13;;;10.58;43.84
29467;BME280;60968;37.490;-122.288;2023-02-20T06:13:27;99138.34;;;10.67;44.64
29467;BME280;60968;37.490;-122.288;2023-02-20T06:16:29;99140.88;;;10.71;45.12
29467;BME280;60968;37.490;-122.288;2023-02-20T06:19:30;99156.69;;;10.56;47.07
29467;BME280;60968;37.490;-122.288;2023-02-20T06:22:31;99145.44;;;10.54;49.20
29467;BME280;60968;37.490;-122.288;2023-02-20T06:25:32;99144.63;;;10.49;49.85
29467;BME280;60968;37.490;-122.288;2023-02-20T06:28:33;99151.72;;;10.36;50.88
29467;BME280;60968;37.490;-122.288;2023-02-20T06:31:34;99145.75;;;10.23;50.13
29467;BME280;60968;37.490;-122.288;2023-02-20T06:34:35;99155.31;;;10.19;50.17
29467;BME280;60968;37.490;-122.288;2023-02-20T06:37:36;99148.56;;;10.03;50.28
29467;BME280;60968;37.490;-122.288;2023-02-20T06:40:37;99159.06;;;9.92;51.04
29467;BME280;60968;37.490;-122.288;2023-02-20T06:43:38;99157.41;;;9.83;51.75
29467;BME280;60968;37.490;-122.288;2023-02-20T06:46:40;99152.19;;;9.82;52.97
29467;BME280;60968;37.490;-122.288;2023-02-20T06:49:41;99152.16;;;9.88;54.23
29467;BME280;60968;37.490;-122.288;2023-02-20T06:52:42;99149.59;;;9.86;54.45
29467;BME280;60968;37.490;-122.288;2023-02-20T06:55:43;99146.16;;;9.81;55.44
29467;BME280;60968;37.490;-122.288;2023-02-20T06:58:46;99127.91;;;9.83;54.48
29467;BME280;60968;37.490;-122.288;2023-02-20T07:01:47;99120.06;;;9.86;54.70
29467;BME280;60968;37.490;-122.288;2023-02-20T07:04:49;99105.25;;;9.94;54.15
29467;BME280;60968;37.490;-122.288;2023-02-20T07:07:51;99104.25;;;10.07;54.95
29467;BME280;60968;37.490;-122.288;2023-02-20T07:10:52;99103.31;;;10.15;53.73
29467;BME280;60968;37.490;-122.288;2023-02-20T07:13:53;99094.53;;;10.22;51.60
29467;BME280;60968;37.490;-122.288;2023-02-20T07:16:54;99098.81;;;10.27;49.00
29467;BME280;60968;37.490;-122.288;2023-02-20T07:20:00;99106.59;;;10.35;46.81
29467;BME280;60968;37.490;-122.288;2023-02-20T07:23:01;99111.81;;;10.29;48.57
29467;BME280;60968;37.490;-122.288;2023-02-20T07:26:05;99111.13;;;10.13;48.28
29467;BME280;60968;37.490;-122.288;2023-02-20T07:29:10;99116.41;;;10.05;47.50
29467;BME280;60968;37.490;-122.288;2023-02-20T07:32:14;99112.09;;;10.06;46.93
29467;BME280;60968;37.490;-122.288;2023-02-20T07:35:15;99106.94;;;9.98;47.94
29467;BME280;60968;37.490;-122.288;2023-02-20T07:38:16;99111.34;;;9.94;46.42
29467;BME280;60968;37.490;-122.288;2023-02-20T07:41:17;99115.63;;;9.97;46.65
29467;BME280;60968;37.490;-122.288;2023-02-20T07:44:18;99113.84;;;10.02;47.09
29467;BME280;60968;37.490;-122.288;2023-02-20T07:47:19;99108.56;;;10.07;47.09
29467;BME280;60968;37.490;-122.288;2023-02-20T07:50:20;99101.66;;;10.07;47.35
29467;BME280;60968;37.490;-122.288;2023-02-20T07:53:21;99101.53;;;10.17;47.91
29467;BME280;60968;37.490;-122.288;2023-02-20T07:56:22;99111.03;;;10.21;47.83
29467;BME280;60968;37.490;-122.288;2023-02-20T07:59:23;99114.47;;;10.24;48.48
29467;BME280;60968;37.490;-122.288;2023-02-20T08:02:24;99129.25;;;10.21;48.22
29467;BME280;60968;37.490;-122.288;2023-02-20T08:05:25;99132.72;;;10.23;47.85
29467;BME280;60968;37.490;-122.288;2023-02-20T08:08:26;99121.50;;;10.16;49.28
29467;BME280;60968;37.490;-122.288;2023-02-20T08:11:28;99119.84;;;10.09;48.63
29467;BME280;60968;37.490;-122.288;2023-02-20T08:14:32;99113.00;;;10.00;49.36
29467;BME280;60968;37.490;-122.288;2023-02-20T08:17:33;99110.41;;;10.00;49.74
29467;BME280;60968;37.490;-122.288;2023-02-20T08:20:33;99109.50;;;10.01;49.48
29467;BME280;60968;37.490;-122.288;2023-02-20T08:23:34;99104.34;;;9.98;49.67
29467;BME280;60968;37.490;-122.288;2023-02-20T08:26:42;99096.56;;;9.96;49.96
29467;BME280;60968;37.490;-122.288;2023-02-20T08:29:44;99091.28;;;10.01;50.33
29467;BME280;60968;37.490;-122.288;2023-02-20T08:32:45;99087.78;;;10.05;51.50
29467;BME280;60968;37.490;-122.288;2023-02-20T08:35:46;99097.28;;;10.08;52.09
29467;BME280;60968;37.490;-122.288;2023-02-20T08:38:47;99100.75;;;10.10;51.92
29467;BME280;60968;37.490;-122.288;2023-02-20T08:41:48;99107.56;;;10.22;51.61
29467;BME280;60968;37.490;-122.288;2023-02-20T08:44:49;99100.50;;;10.33;50.95
29467;BME280;60968;37.490;-122.288;2023-02-20T08:47:56;99105.63;;;10.42;51.09
29467;BME280;60968;37.490;-122.288;2023-02-20T08:50:57;99115.13;;;10.46;50.96
29467;BME280;60968;37.490;-122.288;2023-02-20T08:54:02;99129.94;;;10.43;50.69
29467;BME280;60968;37.490;-122.288;2023-02-20T08:57:03;99125.69;;;10.34;51.64
29467;BME280;60968;37.490;-122.288;2023-02-20T09:00:07;99127.53;;;10.23;50.79
29467;BME280;60968;37.490;-122.288;2023-02-20T09:03:09;99136.31;;;10.11;51.10
29467;BME280;60968;37.490;-122.288;2023-02-20T09:06:10;99140.69;;;10.07;51.09
29467;BME280;60968;37.490;-122.288;2023-02-20T09:09:11;99140.75;;;10.03;53.24
29467;BME280;60968;37.490;-122.288;2023-02-20T09:12:12;99149.47;;;9.95;53.64
29467;BME280;60968;37.490;-122.288;2023-02-20T09:15:13;99153.75;;;10.01;52.63
29467;BME280;60968;37.490;-122.288;2023-02-20T09:18:14;99172.91;;;9.94;54.54
29467;BME280;60968;37.490;-122.288;2023-02-20T09:21:17;99170.50;;;9.72;54.95
29467;BME280;60968;37.490;-122.288;2023-02-20T09:24:18;99166.31;;;9.53;55.71
29467;BME280;60968;37.490;-122.288;2023-02-20T09:27:20;99168.19;;;9.32;56.82
29467;BME280;60968;37.490;-122.288;2023-02-20T09:30:21;99160.47;;;9.17;57.50
29467;BME280;60968;37.490;-122.288;2023-02-20T09:33:23;99158.84;;;9.03;58.09
29467;BME280;60968;37.490;-122.288;2023-02-20T09:36:23;99152.84;;;8.93;59.27
29467;BME280;60968;37.490;-122.288;2023-02-20T09:39:24;99159.81;;;8.84;60.34
29467;BME280;60968;37.490;-122.288;2023-02-20T09:42:36;99171.06;;;8.90;60.69
29467;BME280;60968;37.490;-122.288;2023-02-20T09:49:14;99166.66;;;9.00;62.86
29467;BME280;60968;37.490;-122.288;2023-02-20T09:52:16;99164.09;;;8.99;63.51
29467;BME280;60968;37.490;-122.288;2023-02-20T09:55:19;99172.75;;;8.91;65.88
29467;BME280;60968;37.490;-122.288;2023-02-20T09:58:40;99177.97;;;8.88;67.36
29467;BME280;60968;37.490;-122.288;2023-02-20T10:04:58;99183.25;;;8.71;70.62
29467;BME280;60968;37.490;-122.288;2023-02-20T10:08:01;99192.69;;;8.91;72.04
29467;BME280;60968;37.490;-122.288;2023-02-20T10:11:04;99198.75;;;8.88;73.31
29467;BME280;60968;37.490;-122.288;2023-02-20T10:17:41;99192.81;;;8.57;75.85
29467;BME280;60968;37.490;-122.288;2023-02-20T10:21:06;99191.97;;;8.41;76.33
29467;BME280;60968;37.490;-122.288;2023-02-20T10:24:26;99188.50;;;8.30;75.94
29467;BME280;60968;37.490;-122.288;2023-02-20T10:27:33;99196.34;;;8.19;75.22
29467;BME280;60968;37.490;-122.288;2023-02-20T10:33:58;99195.47;;;8.01;75.83
29467;BME280;60968;37.490;-122.288;2023-02-20T10:37:12;99187.72;;;7.94;76.89
29467;BME280;60968;37.490;-122.288;2023-02-20T10:40:56;99177.31;;;8.01;76.12
29467;BME280;60968;37.490;-122.288;2023-02-20T10:44:27;99173.84;;;8.18;74.64
29467;BME280;60968;37.490;-122.288;2023-02-20T10:47:48;99156.50;;;8.29;72.78
29467;BME280;60968;37.490;-122.288;2023-02-20T10:54:11;99162.56;;;8.47;75.63
29467;BME280;60968;37.490;-122.288;2023-02-20T10:57:21;99157.31;;;8.57;75.55
29467;BME280;60968;37.490;-122.288;2023-02-20T11:00:32;99152.97;;;8.64;75.40
29467;BME280;60968;37.490;-122.288;2023-02-20T11:07:09;99169.38;;;8.74;76.66
29467;BME280;60968;37.490;-122.288;2023-02-20T11:10:11;99171.13;;;8.69;76.84
29467;BME280;60968;37.490;-122.288;2023-02-20T11:13:16;99171.16;;;8.63;76.03
29467;BME280;60968;37.490;-122.288;2023-02-20T11:16:26;99166.00;;;8.58;77.64
29467;BME280;60968;37.490;-122.288;2023-02-20T11:19:41;99177.22;;;8.60;79.92
29467;BME280;60968;37.490;-122.288;2023-02-20T11:22:48;99178.97;;;8.55;79.63
29467;BME280;60968;37.490;-122.288;2023-02-20T11:25:49;99181.59;;;8.50;79.89
29467;BME280;60968;37.490;-122.288;2023-02-20T11:28:59;99184.19;;;8.50;81.76
29467;BME280;60968;37.490;-122.288;2023-02-20T11:32:26;99178.09;;;8.44;82.12
29467;BME280;60968;37.490;-122.288;2023-02-20T11:35:30;99174.66;;;8.34;82.57
29467;BME280;60968;37.490;-122.288;2023-02-20T11:38:34;99180.72;;;8.28;81.78
29467;BME280;60968;37.490;-122.288;2023-02-20T11:41:36;99185.94;;;8.31;79.16
29467;BME280;60968;37.490;-122.288;2023-02-20T11:44:37;99185.06;;;8.38;79.20
29467;BME280;60968;37.490;-122.288;2023-02-20T11:47:39;99187.66;;;8.32;81.33
29467;BME280;60968;37.490;-122.288;2023-02-20T11:50:49;99185.09;;;8.20;81.41
29467;BME280;60968;37.490;-122.288;2023-02-20T11:54:06;99190.28;;;8.20;81.26
29467;BME280;60968;37.490;-122.288;2023-02-20T11:57:27;99202.38;;;8.21;79.95
29467;BME280;60968;37.490;-122.288;2023-02-20T12:00:47;99201.50;;;8.25;81.12
29467;BME280;60968;37.490;-122.288;2023-02-20T12:03:54;99214.50;;;8.19;81.36
29467;BME280;60968;37.490;-122.288;2023-02-20T12:06:56;99217.09;;;8.13;82.18
29467;BME280;60968;37.490;-122.288;2023-02-20T12:13:21;99211.06;;;8.07;85.00
29467;BME280;60968;37.490;-122.288;2023-02-20T12:20:15;99213.66;;;7.95;85.32
29467;BME280;60968;37.490;-122.288;2023-02-20T12:23:29;99213.66;;;7.86;86.34
29467;BME280;60968;37.490;-122.288;2023-02-20T12:37:40;99220.56;;;7.88;82.42
29467;BME280;60968;37.490;-122.288;2023-02-20T12:47:21;99217.97;;;7.92;80.86
29467;BME280;60968;37.490;-122.288;2023-02-20T12:50:45;99205.88;;;7.89;80.55
29467;BME280;60968;37.490;-122.288;2023-02-20T12:57:47;99185.97;;;7.91;80.81
29467;BME280;60968;37.490;-122.288;2023-02-20T13:00:53;99186.00;;;7.86;80.27
29467;BME280;60968;37.490;-122.288;2023-02-20T13:04:28;99183.41;;;7.85;81.39
29467;BME280;60968;37.490;-122.288;2023-02-20T13:07:55;99186.84;;;7.82;82.04
29467;BME280;60968;37.490;-122.288;2023-02-20T13:10:58;99181.63;;;8.07;82.27
29467;BME280;60968;37.490;-122.288;2023-02-20T13:14:09;99197.19;;;8.22;81.50
29467;BME280;60968;37.490;-122.288;2023-02-20T13:17:29;99192.00;;;8.29;80.55
29467;BME280;60968;37.490;-122.288;2023-02-20T13:20:39;99195.44;;;8.29;75.73
29467;BME280;60968;37.490;-122.288;2023-02-20T13:23:43;99189.41;;;8.27;72.31
29467;BME280;60968;37.490;-122.288;2023-02-20T13:26:52;99185.94;;;8.25;71.21
29467;BME280;60968;37.490;-122.288;2023-02-20T13:30:19;99177.31;;;8.20;67.34
29467;BME280;60968;37.490;-122.288;2023-02-20T13:33:28;99178.16;;;8.19;68.06
29467;BME280;60968;37.490;-122.288;2023-02-20T13:39:41;99167.78;;;8.13;65.34
29467;BME280;60968;37.490;-122.288;2023-02-20T13:42:43;99185.94;;;8.13;63.78
29467;BME280;60968;37.490;-122.288;2023-02-20T13:45:45;99195.47;;;8.21;63.35
29467;BME280;60968;37.490;-122.288;2023-02-20T13:48:47;99196.34;;;8.22;63.07
29467;BME280;60968;37.490;-122.288;2023-02-20T13:51:50;99191.97;;;8.43;64.59
29467;BME280;60968;37.490;-122.288;2023-02-20T13:54:51;99188.53;;;8.36;67.90
29467;BME280;60968;37.490;-122.288;2023-02-20T14:01:01;99209.34;;;8.03;72.14
29467;BME280;60968;37.490;-122.288;2023-02-20T14:04:04;99187.72;;;7.95;72.13
29467;BME280;60968;37.490;-122.288;2023-02-20T14:07:05;99179.06;;;7.90;71.72
29467;BME280;60968;37.490;-122.288;2023-02-20T14:10:32;99156.59;;;7.80;70.83
29467;BME280;60968;37.490;-122.288;2023-02-20T14:13:35;99158.31;;;7.75;70.94
29467;BME280;60968;37.490;-122.288;2023-02-20T14:16:41;99160.06;;;7.86;74.68
29467;BME280;60968;37.490;-122.288;2023-02-20T14:19:45;99160.88;;;8.04;75.90
29467;BME280;60968;37.490;-122.288;2023-02-20T14:22:46;99170.41;;;8.06;82.45
29467;BME280;60968;37.490;-122.288;2023-02-20T14:26:01;99201.53;;;8.06;85.44
29467;BME280;60968;37.490;-122.288;2023-02-20T14:29:19;99191.16;;;8.06;84.06
29467;BME280;60968;37.490;-122.288;2023-02-20T14:32:20;99178.19;;;7.96;85.53
29467;BME280;60968;37.490;-122.288;2023-02-20T14:41:56;99189.44;;;7.68;88.71
29467;BME280;60968;37.490;-122.288;2023-02-20T14:45:00;99199.81;;;7.65;91.12
29467;BME280;60968;37.490;-122.288;2023-02-20T14:48:04;99207.63;;;7.64;91.76
29467;BME280;60968;37.490;-122.288;2023-02-20T14:51:44;99217.94;;;7.61;91.92
29467;BME280;60968;37.490;-122.288;2023-02-20T14:54:42;99220.56;;;7.50;92.14
29467;BME280;60968;37.490;-122.288;2023-02-20T14:57:48;99218.81;;;7.46;93.10
29467;BME280;60968;37.490;-122.288;2023-02-20T15:00:50;99217.06;;;7.42;93.95
29467;BME280;60968;37.490;-122.288;2023-02-20T15:04:17;99230.03;;;7.51;93.91
29467;BME280;60968;37.490;-122.288;2023-02-20T15:07:23;99246.47;;;7.56;93.72
29467;BME280;60968;37.490;-122.288;2023-02-20T15:10:38;99250.84;;;7.68;93.13
29467;BME280;60968;37.490;-122.288;2023-02-20T15:13:44;99247.38;;;7.83;96.14
29467;BME280;60968;37.490;-122.288;2023-02-20T15:16:46;99242.19;;;7.86;100.00
29467;BME280;60968;37.490;-122.288;2023-02-20T15:19:47;99235.28;;;7.86;100.00
29467;BME280;60968;37.490;-122.288;2023-02-20T15:22:48;99229.22;;;7.86;100.00
29467;BME280;60968;37.490;-122.288;2023-02-20T15:25:49;99243.91;;;7.92;99.33
29467;BME280;60968;37.490;-122.288;2023-02-20T15:29:27;99267.31;;;8.12;93.05
29467;BME280;60968;37.490;-122.288;2023-02-20T15:32:28;99277.66;;;8.30;91.36
29467;BME280;60968;37.490;-122.288;2023-02-20T15:35:30;99290.66;;;8.49;91.00
29467;BME280;60968;37.490;-122.288;2023-02-20T15:38:33;99304.47;;;8.65;90.44
29467;BME280;60968;37.490;-122.288;2023-02-20T15:41:35;99326.09;;;8.84;91.24
29467;BME280;60968;37.490;-122.288;2023-02-20T15:44:36;99334.75;;;8.86;95.93
29467;BME280;60968;37.490;-122.288;2023-02-20T15:47:37;99328.69;;;8.87;96.50
29467;BME280;60968;37.490;-122.288;2023-02-20T15:50:38;99335.59;;;8.97;99.89
29467;BME280;60968;37.490;-122.288;2023-02-20T15:53:38;99346.00;;;8.99;100.00
29467;BME280;60968;37.490;-122.288;2023-02-20T15:56:40;99352.09;;;8.93;100.00
29467;BME280;60968;37.490;-122.288;2023-02-20T15:59:40;99348.59;;;9.03;100.00
29467;BME280;60968;37.490;-122.288;2023-02-20T16:02:41;99340.72;;;9.25;100.00
29467;BME280;60968;37.490;-122.288;2023-02-20T16:05:42;99345.06;;;9.26;100.00
29467;BME280;60968;37.490;-122.288;2023-02-20T16:08:43;99337.19;;;9.40;97.79
29467;BME280;60968;37.490;-122.288;2023-02-20T16:11:45;99336.28;;;9.49;95.36
29467;BME280;60968;37.490;-122.288;2023-02-20T16:14:47;99338.06;;;9.47;89.25
29467;BME280;60968;37.490;-122.288;2023-02-20T16:17:48;99339.75;;;9.48;88.98
29467;BME280;60968;37.490;-122.288;2023-02-20T16:20:50;99334.50;;;9.60;90.46
29467;BME280;60968;37.490;-122.288;2023-02-20T16:23:52;99354.41;;;9.66;91.29
29467;BME280;60968;37.490;-122.288;2023-02-20T16:26:53;99348.25;;;9.84;91.26
29467;BME280;60968;37.490;-122.288;2023-02-20T16:29:55;99342.94;;;10.02;89.57
29467;BME280;60968;37.490;-122.288;2023-02-20T16:32:57;99347.94;;;10.30;87.08
29467;BME280;60968;37.490;-122.288;2023-02-20T16:35:58;99334.75;;;10.55;84.70
29467;BME280;60968;37.490;-122.288;2023-02-20T16:39:00;99328.34;;;10.87;79.89
29467;BME280;60968;37.490;-122.288;2023-02-20T16:42:04;99331.56;;;11.13;81.46
29467;BME280;60968;37.490;-122.288;2023-02-20T16:45:17;99333.06;;;11.33;78.61
29467;BME280;60968;37.490;-122.288;2023-02-20T16:48:20;99338.06;;;11.52;78.29
29467;BME280;60968;37.490;-122.288;2023-02-20T16:51:21;99344.00;;;11.61;77.63
29467;BME280;60968;37.490;-122.288;2023-02-20T16:54:22;99337.91;;;11.62;75.34
29467;BME280;60968;37.490;-122.288;2023-02-20T16:57:24;99348.19;;;11.76;72.04
29467;BME280;60968;37.490;-122.288;2023-02-20T17:00:27;99346.75;;;12.16;74.31
29467;BME280;60968;37.490;-122.288;2023-02-20T17:03:28;99345.91;;;13.62;68.43
29467;BME280;60968;37.490;-122.288;2023-02-20T17:06:29;99336.00;;;18.09;55.38
29467;BME280;60968;37.490;-122.288;2023-02-20T17:09:30;99341.06;;;20.71;48.73
29467;BME280;60968;37.490;-122.288;2023-02-20T17:12:31;99351.81;;;21.70;43.74
29467;BME280;60968;37.490;-122.288;2023-02-20T17:15:32;99342.00;;;22.04;41.50
29467;BME280;60968;37.490;-122.288;2023-02-20T17:18:33;99348.88;;;22.99;37.44
29467;BME280;60968;37.490;-122.288;2023-02-20T17:21:34;99337.59;;;23.96;36.15